createdAt,value
2023-02-11T00:01:44.065Z,97068.06
2023-02-11T00:04:12.285Z,97073.00
2023-02-11T00:06:40.835Z,97067.22
2023-02-11T00:09:08.633Z,97069.91
2023-02-11T00:11:37.116Z,97065.81
2023-02-11T00:14:08.113Z,97038.09
2023-02-11T00:16:36.685Z,97050.63
2023-02-11T00:19:06.668Z,97054.31
2023-02-11T00:21:35.488Z,97043.69
2023-02-11T00:24:03.746Z,97043.03
2023-02-11T00:26:34.830Z,97041.03
2023-02-11T00:29:04.345Z,97042.06
2023-02-11T00:31:33.489Z,97038.50
2023-02-11T00:34:01.521Z,97043.22
2023-02-11T00:36:30.551Z,97036.94
2023-02-11T00:38:59.657Z,97026.34
2023-02-11T00:41:29.746Z,97030.53
2023-02-11T00:44:00.860Z,97029.81
2023-02-11T00:46:29.943Z,97015.47
2023-02-11T00:48:58.173Z,97023.94
2023-02-11T00:51:27.465Z,97013.75
2023-02-11T00:53:55.434Z,97021.84
2023-02-11T00:56:24.727Z,97019.50
2023-02-11T00:58:53.666Z,97030.78
2023-02-11T01:01:21.873Z,97006.41
2023-02-11T01:03:50.029Z,97011.81
2023-02-11T01:06:19.264Z,97023.16
2023-02-11T01:08:47.282Z,97011.91
2023-02-11T01:11:21.329Z,97022.06
2023-02-11T01:13:50.330Z,97008.25
2023-02-11T01:16:19.536Z,97018.50
2023-02-11T01:18:47.590Z,97016.59
2023-02-11T01:21:18.729Z,97025.63
2023-02-11T01:23:46.811Z,97024.66
2023-02-11T01:26:14.946Z,97020.84
2023-02-11T01:28:42.976Z,97027.63
2023-02-11T01:31:11.517Z,97035.84
2023-02-11T01:33:39.372Z,97025.13
2023-02-11T01:36:08.177Z,97021.34
2023-02-11T01:38:36.892Z,97022.78
2023-02-11T01:41:09.323Z,97022.22
2023-02-11T01:43:43.572Z,97004.38
2023-02-11T01:46:36.318Z,97024.03
2023-02-11T01:49:12.824Z,97030.81
2023-02-11T01:51:44.260Z,97023.34
2023-02-11T01:54:35.713Z,97011.66
2023-02-11T01:57:25.446Z,97022.91
2023-02-11T02:00:12.816Z,97018.94
2023-02-11T02:02:51.307Z,97017.63
2023-02-11T02:05:25.309Z,97013.34
2023-02-11T02:08:16.668Z,97011.22
2023-02-11T02:10:47.689Z,97013.09
2023-02-11T02:13:17.964Z,97018.28
2023-02-11T02:16:03.729Z,97020.06
2023-02-11T02:18:51.531Z,97018.06
2023-02-11T02:21:59.591Z,97012.25
2023-02-11T02:24:52.016Z,97007.97
2023-02-11T02:27:42.330Z,97019.09
2023-02-11T02:30:20.902Z,97006.28
2023-02-11T02:33:22.350Z,97012.50
2023-02-11T02:36:04.474Z,97015.03
2023-02-11T02:38:54.959Z,97019.28
2023-02-11T02:41:32.851Z,97018.31
2023-02-11T02:44:01.033Z,97012.38
2023-02-11T02:46:33.009Z,97016.94
2023-02-11T02:49:02.037Z,97013.09
2023-02-11T02:51:51.976Z,97004.97
2023-02-11T02:54:36.155Z,97021.44
2023-02-11T02:57:07.274Z,97009.38
2023-02-11T03:00:13.547Z,97001.22
2023-02-11T03:03:02.862Z,97008.53
2023-02-11T03:05:58.762Z,96993.22
2023-02-11T03:09:05.807Z,97003.22
2023-02-11T03:11:36.094Z,97005.16
2023-02-11T03:14:08.386Z,96994.56
2023-02-11T03:16:39.578Z,97007.53
2023-02-11T03:19:21.205Z,97003.84
2023-02-11T03:21:52.097Z,97007.22
2023-02-11T03:24:33.481Z,97019.00
2023-02-11T03:27:09.691Z,97013.94
2023-02-11T03:29:45.036Z,97007.81
2023-02-11T03:32:17.270Z,97008.69
2023-02-11T03:34:48.125Z,97012.38
2023-02-11T03:37:45.742Z,96999.41
2023-02-11T03:40:19.436Z,97002.66
2023-02-11T03:43:01.321Z,97005.75
2023-02-11T03:45:30.796Z,97018.44
2023-02-11T03:48:04.317Z,97014.66
2023-02-11T03:50:35.547Z,97010.91
2023-02-11T03:53:05.160Z,97013.28
2023-02-11T03:55:38.155Z,97023.00
2023-02-11T03:58:07.292Z,97015.47
2023-02-11T04:00:39.967Z,97001.09
2023-02-11T04:03:09.398Z,97020.34
2023-02-11T04:05:38.525Z,97012.03
2023-02-11T04:08:06.929Z,97015.22
2023-02-11T04:10:35.404Z,97017.22
2023-02-11T04:13:03.596Z,97015.44
2023-02-11T04:15:31.770Z,97018.59
2023-02-11T04:17:59.510Z,97022.66
2023-02-11T04:20:28.000Z,97024.81
2023-02-11T04:22:55.831Z,97019.41
2023-02-11T04:25:24.172Z,97025.16
2023-02-11T04:27:53.027Z,97017.19
2023-02-11T04:30:21.309Z,97016.59
2023-02-11T04:32:49.141Z,97024.75
2023-02-11T04:35:17.387Z,97015.09
2023-02-11T04:37:45.611Z,97025.22
2023-02-11T04:40:13.876Z,97024.78
2023-02-11T04:42:41.754Z,97038.94
2023-02-11T04:45:11.293Z,97033.06
2023-02-11T04:47:39.115Z,97045.84
2023-02-11T04:50:07.306Z,97034.47
2023-02-11T04:52:35.117Z,97033.59
2023-02-11T04:55:03.328Z,97040.16
2023-02-11T04:57:31.112Z,97050.78
2023-02-11T04:59:59.334Z,97045.38
2023-02-11T05:02:27.228Z,97048.81
2023-02-11T05:04:55.352Z,97049.19
2023-02-11T05:07:23.553Z,97040.28
2023-02-11T05:09:51.640Z,97044.44
2023-02-11T05:12:19.629Z,97046.81
2023-02-11T05:14:47.949Z,97053.31
2023-02-11T05:17:15.845Z,97050.19
2023-02-11T05:19:44.019Z,97053.66
2023-02-11T05:22:12.487Z,97050.47
2023-02-11T05:24:40.601Z,97054.88
2023-02-11T05:27:08.336Z,97035.94
2023-02-11T05:29:36.611Z,97062.13
2023-02-11T05:32:04.559Z,97052.41
2023-02-11T05:34:32.832Z,97057.88
2023-02-11T05:37:01.247Z,97062.78
2023-02-11T05:39:29.463Z,97054.56
2023-02-11T05:41:57.370Z,97054.09
2023-02-11T05:44:25.651Z,97049.91
2023-02-11T05:46:53.423Z,97057.00
2023-02-11T05:49:21.747Z,97064.81
2023-02-11T05:51:49.946Z,97057.06
2023-02-11T05:54:18.186Z,97062.25
2023-02-11T05:56:45.998Z,97067.84
2023-02-11T05:59:15.841Z,97065.53
2023-02-11T06:01:43.960Z,97065.50
2023-02-11T06:04:12.120Z,97058.63
2023-02-11T06:06:39.921Z,97071.66
2023-02-11T06:09:08.114Z,97063.19
2023-02-11T06:11:35.841Z,97065.75
2023-02-11T06:14:04.476Z,97061.66
2023-02-11T06:16:32.524Z,97058.03
2023-02-11T06:19:01.052Z,97066.63
2023-02-11T06:21:43.005Z,97057.09
2023-02-11T06:24:12.758Z,97059.63
2023-02-11T06:26:40.829Z,97069.44
2023-02-11T06:29:09.358Z,97069.59
2023-02-11T06:31:39.383Z,97074.81
2023-02-11T06:34:09.751Z,97070.09
2023-02-11T06:36:40.744Z,97076.09
2023-02-11T06:39:08.940Z,97062.56
2023-02-11T06:41:36.936Z,97070.06
2023-02-11T06:44:05.264Z,97082.97
2023-02-11T06:46:33.057Z,97077.22
2023-02-11T06:49:01.410Z,97073.88
2023-02-11T06:51:29.327Z,97079.31
2023-02-11T06:53:57.446Z,97082.66
2023-02-11T06:56:27.858Z,97070.22
2023-02-11T06:58:56.675Z,97076.72
2023-02-11T07:01:26.169Z,97067.97
2023-02-11T07:03:55.241Z,97065.69
2023-02-11T07:06:28.080Z,97067.03
2023-02-11T07:08:56.649Z,97065.66
2023-02-11T07:11:27.310Z,97069.00
2023-02-11T07:14:00.603Z,97064.31
2023-02-11T07:16:28.606Z,97059.69
2023-02-11T07:18:56.906Z,97057.03
2023-02-11T07:21:25.180Z,97053.56
2023-02-11T07:23:53.821Z,97059.09
2023-02-11T07:26:24.521Z,97045.69
2023-02-11T07:28:53.295Z,97046.47
2023-02-11T07:31:25.963Z,97050.19
2023-02-11T07:33:57.554Z,97052.22
2023-02-11T07:36:26.279Z,97041.97
2023-02-11T07:38:54.666Z,97056.50
2023-02-11T07:41:23.789Z,97054.19
2023-02-11T07:43:52.864Z,97044.66
2023-02-11T07:46:26.541Z,97045.13
2023-02-11T07:48:55.453Z,97031.53
2023-02-11T07:51:26.159Z,97043.41
2023-02-11T07:53:55.919Z,97040.31
2023-02-11T07:56:24.497Z,97039.16
2023-02-11T07:58:52.770Z,97038.25
2023-02-11T08:01:25.633Z,97043.22
2023-02-11T08:03:58.248Z,97034.72
2023-02-11T08:06:29.357Z,97042.34
2023-02-11T08:08:59.709Z,97022.25
2023-02-11T08:11:29.309Z,97028.25
2023-02-11T08:13:57.876Z,97019.44
2023-02-11T08:16:29.120Z,97022.19
2023-02-11T08:18:59.675Z,97021.97
2023-02-11T08:21:28.959Z,97007.16
2023-02-11T08:23:57.372Z,96993.84
2023-02-11T08:26:29.155Z,96986.53
2023-02-11T08:28:58.629Z,97000.31
2023-02-11T08:31:29.707Z,96992.06
2023-02-11T08:34:02.624Z,96995.63
2023-02-11T08:36:36.544Z,96987.75
2023-02-11T08:39:18.491Z,96981.41
2023-02-11T08:41:49.809Z,96980.69
2023-02-11T08:44:19.933Z,96979.59
2023-02-11T08:46:48.530Z,96958.78
2023-02-11T08:49:16.836Z,96959.63
2023-02-11T08:51:45.486Z,96957.63
2023-02-11T08:54:14.562Z,96956.44
2023-02-11T08:56:43.068Z,96953.25
2023-02-11T08:59:15.367Z,96946.59
2023-02-11T09:01:44.657Z,96941.88
2023-02-11T09:04:13.409Z,96932.00
2023-02-11T09:06:41.906Z,96928.84
2023-02-11T09:09:13.791Z,96934.69
2023-02-11T09:11:43.351Z,96932.22
2023-02-11T09:14:20.917Z,96929.16
2023-02-11T09:16:49.418Z,96920.97
2023-02-11T09:19:18.555Z,96919.78
2023-02-11T09:21:47.299Z,96914.28
2023-02-11T09:24:15.809Z,96908.66
2023-02-11T09:26:45.192Z,96911.41
2023-02-11T09:29:13.666Z,96905.88
2023-02-11T09:31:41.679Z,96907.50
2023-02-11T09:34:11.979Z,96899.34
2023-02-11T09:36:42.991Z,96904.03
2023-02-11T09:39:17.379Z,96890.25
2023-02-11T09:42:11.285Z,96890.25
2023-02-11T09:44:44.506Z,96897.94
2023-02-11T09:47:36.329Z,96883.63
2023-02-11T09:50:12.729Z,96878.47
2023-02-11T09:53:01.803Z,96868.97
2023-02-11T09:55:48.637Z,96882.97
2023-02-11T09:58:26.820Z,96876.00
2023-02-11T10:01:09.427Z,96879.50
2023-02-11T10:04:00.863Z,96875.19
2023-02-11T10:06:52.391Z,96873.16
2023-02-11T10:09:38.183Z,96870.56
2023-02-11T10:12:38.337Z,96860.75
2023-02-11T10:15:37.745Z,96864.66
2023-02-11T10:18:36.587Z,96853.97
2023-02-11T10:21:28.831Z,96862.69
2023-02-11T10:24:03.852Z,96857.19
2023-02-11T10:26:33.758Z,96857.56
2023-02-11T10:29:12.645Z,96850.47
2023-02-11T10:31:45.390Z,96839.50
2023-02-11T10:34:15.101Z,96842.97
2023-02-11T10:36:45.137Z,96829.50
2023-02-11T10:39:20.723Z,96836.59
2023-02-11T10:41:56.862Z,96830.59
2023-02-11T10:44:36.790Z,96833.16
2023-02-11T10:47:21.124Z,96823.69
2023-02-11T10:49:49.991Z,96826.00
2023-02-11T10:52:27.377Z,96824.47
2023-02-11T10:55:04.798Z,96808.41
2023-02-11T10:57:37.999Z,96826.00
2023-02-11T11:00:18.582Z,96816.75
2023-02-11T11:02:52.840Z,96820.94
2023-02-11T11:05:29.341Z,96813.53
2023-02-11T11:08:00.405Z,96805.84
2023-02-11T11:11:04.020Z,96808.59
2023-02-11T11:13:35.785Z,96802.94
2023-02-11T11:16:18.252Z,96799.88
2023-02-11T11:18:48.831Z,96806.06
2023-02-11T11:21:35.655Z,96802.78
2023-02-11T11:24:04.593Z,96803.88
2023-02-11T11:26:47.093Z,96795.38
2023-02-11T11:29:19.811Z,96799.88
2023-02-11T11:31:51.094Z,96796.63
2023-02-11T11:34:38.489Z,96797.53
2023-02-11T13:02:00.939Z,96726.66
2023-02-11T13:04:43.651Z,96743.41
2023-02-11T13:07:20.621Z,96752.56
2023-02-11T13:11:44.945Z,96757.94
2023-02-11T13:14:22.553Z,96754.63
2023-02-11T13:16:51.991Z,96756.66
2023-02-11T13:19:39.012Z,96748.69
2023-02-11T13:22:32.996Z,96749.53
2023-02-11T13:25:36.557Z,96743.25
2023-02-11T13:28:37.247Z,96745.66
2023-02-11T13:31:08.114Z,96751.72
2023-02-11T13:33:43.678Z,96747.53
2023-02-11T13:36:18.213Z,96747.84
2023-02-11T13:38:55.072Z,96736.84
2023-02-11T13:41:31.239Z,96745.47
2023-02-11T13:44:04.053Z,96745.84
2023-02-11T13:46:56.058Z,96745.03
2023-02-11T13:49:26.050Z,96756.13
2023-02-11T13:51:56.180Z,96734.81
2023-02-11T13:54:39.479Z,96748.66
2023-02-11T13:57:28.151Z,96739.63
2023-02-11T14:00:02.607Z,96743.16
2023-02-11T14:02:55.681Z,96744.41
2023-02-11T14:05:49.092Z,96743.00
2023-02-11T14:08:41.994Z,96733.47
2023-02-11T14:11:29.948Z,96737.47
2023-02-11T14:14:15.582Z,96747.84
2023-02-11T14:17:09.492Z,96749.44
2023-02-11T14:19:46.449Z,96745.53
2023-02-11T14:22:24.634Z,96747.81
2023-02-11T14:25:00.326Z,96741.97
2023-02-11T14:27:35.076Z,96748.56
2023-02-11T14:30:25.851Z,96749.00
2023-02-11T14:33:10.532Z,96756.38
2023-02-11T14:36:05.973Z,96748.28
2023-02-11T14:39:02.825Z,96749.84
2023-02-11T14:41:35.359Z,96735.88
2023-02-11T14:44:21.586Z,96751.56
2023-02-11T14:46:53.717Z,96760.47
2023-02-11T14:49:26.087Z,96753.81
2023-02-11T14:52:06.674Z,96764.81
2023-02-11T14:54:36.158Z,96749.47
2023-02-11T14:57:16.780Z,96758.75
2023-02-11T15:00:05.961Z,96769.28
2023-02-11T15:02:38.862Z,96759.03
2023-02-11T15:05:26.410Z,96759.88
2023-02-11T15:08:07.866Z,96766.13
2023-02-11T15:10:42.981Z,96768.13
2023-02-11T15:13:19.265Z,96760.75
2023-02-11T15:15:48.808Z,96770.56
2023-02-11T15:18:23.025Z,96773.31
2023-02-11T15:20:52.671Z,96776.44
2023-02-11T15:23:27.489Z,96775.66
2023-02-11T15:25:58.462Z,96774.09
2023-02-11T15:28:30.416Z,96778.03
2023-02-11T15:31:14.134Z,96773.31
2023-02-11T15:33:42.545Z,96767.41
2023-02-11T15:36:13.089Z,96778.03
2023-02-11T15:38:41.823Z,96778.81
2023-02-11T15:41:38.824Z,96772.53
2023-02-11T15:44:27.212Z,96763.91
2023-02-11T15:46:55.818Z,96775.69
2023-02-11T15:49:25.532Z,96769.78
2023-02-11T15:51:55.698Z,96767.81
2023-02-11T15:54:29.646Z,96765.47
2023-02-11T15:57:05.228Z,96763.50
2023-02-11T15:59:53.522Z,96759.94
2023-02-11T16:02:45.467Z,96764.28
2023-02-11T16:05:32.902Z,96760.75
2023-02-11T16:08:12.964Z,96762.72
2023-02-11T16:10:55.058Z,96749.38
2023-02-11T16:13:24.715Z,96765.06
2023-02-11T16:16:04.221Z,96774.50
2023-02-11T16:18:40.290Z,96770.56
2023-02-11T16:21:18.202Z,96774.50
2023-02-11T16:23:56.193Z,96769.75
2023-02-11T16:26:39.659Z,96769.75
2023-02-11T16:29:10.603Z,96767.00
2023-02-11T16:31:42.613Z,96774.06
2023-02-11T16:34:28.861Z,96768.19
2023-02-11T16:36:57.005Z,96777.19
2023-02-11T16:39:25.017Z,96780.78
2023-02-11T16:41:53.206Z,96773.69
2023-02-11T16:44:21.319Z,96775.66
2023-02-11T16:46:49.710Z,96769.00
2023-02-11T16:49:25.186Z,96769.38
2023-02-11T16:51:57.136Z,96758.38
2023-02-11T16:54:25.279Z,96767.44
2023-02-11T16:56:53.485Z,96767.81
2023-02-11T16:59:21.424Z,96771.34
2023-02-11T17:01:52.220Z,96764.25
2023-02-11T17:04:26.323Z,96766.63
2023-02-11T17:06:57.199Z,96776.84
2023-02-11T17:09:30.637Z,96772.50
2023-02-11T17:11:59.591Z,96759.53
2023-02-11T17:14:27.668Z,96773.69
2023-02-11T17:16:55.813Z,96775.25
2023-02-11T17:19:24.270Z,96778.00
2023-02-11T17:21:53.647Z,96783.13
2023-02-11T17:24:22.446Z,96777.63
2023-02-11T17:26:50.775Z,96769.38
2023-02-11T17:29:22.518Z,96778.81
2023-02-11T17:31:52.257Z,96759.16
2023-02-11T17:34:22.508Z,96769.38
2023-02-11T17:36:51.070Z,96770.16
2023-02-11T17:39:21.342Z,96775.63
2023-02-11T17:41:49.682Z,96778.00
2023-02-11T17:44:17.813Z,96769.75
2023-02-11T17:46:46.142Z,96760.72
2023-02-11T17:49:13.904Z,96778.00
2023-02-11T17:51:42.327Z,96765.06
2023-02-11T17:54:17.192Z,96770.56
2023-02-11T17:56:46.273Z,96758.38
2023-02-11T17:59:14.700Z,96772.50
2023-02-11T18:01:45.341Z,96758.00
2023-02-11T18:04:15.619Z,96764.66
2023-02-11T18:06:44.370Z,96759.16
2023-02-11T18:09:12.415Z,96752.50
2023-02-11T18:11:41.830Z,96765.44
2023-02-11T18:14:11.894Z,96774.06
2023-02-11T18:16:43.539Z,96765.06
2023-02-11T18:19:12.510Z,96776.06
2023-02-11T18:21:40.934Z,96781.50
2023-02-11T18:24:09.341Z,96769.38
2023-02-11T18:26:38.013Z,96772.88
2023-02-11T18:29:07.244Z,96774.88
2023-02-11T18:31:36.915Z,96777.25
2023-02-11T18:34:07.789Z,96770.19
2023-02-11T18:36:36.744Z,96772.13
2023-02-11T18:39:06.018Z,96772.13
2023-02-11T18:41:35.077Z,96759.94
2023-02-11T18:44:04.898Z,96756.81
2023-02-11T18:46:33.602Z,96768.59
2023-02-11T18:49:01.786Z,96763.91
2023-02-11T18:51:32.689Z,96756.84
2023-02-11T18:54:01.742Z,96763.91
2023-02-11T18:56:30.172Z,96761.53
2023-02-11T18:59:01.501Z,96756.44
2023-02-11T19:01:31.507Z,96760.75
2023-02-11T19:04:03.232Z,96767.41
2023-02-11T19:06:35.019Z,96770.16
2023-02-11T19:09:10.641Z,96768.22
2023-02-11T19:11:54.591Z,96766.66
2023-02-11T19:14:31.987Z,96759.19
2023-02-11T19:17:04.716Z,96759.97
2023-02-11T19:19:36.077Z,96758.81
2023-02-11T19:22:09.994Z,96764.31
2023-02-11T19:24:39.492Z,96751.34
2023-02-11T19:27:08.023Z,96761.53
2023-02-11T19:29:36.137Z,96753.69
2023-02-11T19:32:06.490Z,96756.81
2023-02-11T19:34:41.436Z,96758.38
2023-02-11T19:37:13.024Z,96749.78
2023-02-11T19:39:42.802Z,96757.63
2023-02-11T19:42:12.469Z,96753.69
2023-02-11T19:44:40.556Z,96752.13
2023-02-11T19:47:10.580Z,96752.91
2023-02-11T19:49:39.024Z,96748.56
2023-02-11T19:52:07.203Z,96750.94
2023-02-11T19:54:35.264Z,96751.72
2023-02-11T19:57:03.937Z,96742.28
2023-02-11T19:59:32.357Z,96747.38
2023-02-11T20:02:01.739Z,96738.34
2023-02-11T20:04:32.402Z,96715.63
2023-02-11T20:07:00.920Z,96729.34
2023-02-11T20:09:31.354Z,96728.56
2023-02-11T20:12:00.665Z,96742.69
2023-02-11T20:14:28.495Z,96734.84
2023-02-11T20:16:56.798Z,96738.75
2023-02-11T20:19:26.166Z,96739.56
2023-02-11T20:21:57.035Z,96736.78
2023-02-11T20:24:27.112Z,96736.03
2023-02-11T20:26:57.056Z,96736.78
2023-02-11T20:29:32.293Z,96743.09
2023-02-11T20:32:03.276Z,96732.88
2023-02-11T20:34:31.228Z,96737.97
2023-02-11T20:36:59.746Z,96727.38
2023-02-11T20:39:27.928Z,96731.31
2023-02-11T20:41:57.789Z,96738.38
2023-02-11T20:44:25.708Z,96734.03
2023-02-11T20:46:56.980Z,96729.34
2023-02-11T20:49:25.371Z,96719.94
2023-02-11T20:51:54.447Z,96723.84
2023-02-11T20:54:24.933Z,96725.81
2023-02-11T20:56:54.152Z,96720.72
2023-02-11T20:59:22.072Z,96721.09
2023-02-11T21:01:54.356Z,96719.91
2023-02-11T21:04:25.554Z,96715.22
2023-02-11T21:06:57.274Z,96714.81
2023-02-11T21:09:28.347Z,96712.88
2023-02-11T21:11:57.775Z,96712.84
2023-02-11T21:14:27.045Z,96714.81
2023-02-11T21:16:56.504Z,96710.47
2023-02-11T21:19:24.733Z,96708.13
2023-02-11T21:21:53.379Z,96709.69
2023-02-11T21:24:21.370Z,96705.38
2023-02-11T21:26:49.732Z,96690.47
2023-02-11T21:29:17.549Z,96689.72
2023-02-11T21:31:45.793Z,96695.19
2023-02-11T21:34:14.566Z,96696.38
2023-02-11T21:36:43.026Z,96685.75
2023-02-11T21:39:11.052Z,96686.94
2023-02-11T21:41:39.576Z,96682.25
2023-02-11T21:44:07.404Z,96679.88
2023-02-11T21:46:35.913Z,96676.34
2023-02-11T21:49:03.860Z,96676.75
2023-02-11T21:51:32.225Z,96689.28
2023-02-11T21:54:01.907Z,96677.50
2023-02-11T21:56:32.240Z,96683.38
2023-02-11T21:59:00.858Z,96676.72
2023-02-11T22:01:32.045Z,96677.13
2023-02-11T22:04:00.656Z,96686.53
2023-02-11T22:06:31.394Z,96691.63
2023-02-11T22:09:03.205Z,96683.00
2023-02-11T22:11:31.678Z,96668.09
2023-02-11T22:13:59.963Z,96662.97
2023-02-11T22:16:28.963Z,96669.63
2023-02-11T22:19:02.819Z,96675.94
2023-02-11T22:21:31.166Z,96679.84
2023-02-11T22:23:59.060Z,96657.50
2023-02-11T22:26:28.219Z,96667.28
2023-02-11T22:28:56.856Z,96668.47
2023-02-11T22:31:30.111Z,96673.19
2023-02-11T22:33:59.651Z,96675.97
2023-02-11T22:36:33.452Z,96666.53
2023-02-11T22:39:03.203Z,96671.25
2023-02-11T22:41:32.055Z,96667.31
2023-02-11T22:43:59.850Z,96668.50
2023-02-11T22:46:28.638Z,96669.28
2023-02-11T22:48:57.038Z,96660.22
2023-02-11T22:51:27.288Z,96659.44
2023-02-11T22:54:00.485Z,96651.59
2023-02-11T22:56:30.531Z,96654.31
2023-02-11T22:59:04.142Z,96652.81
2023-02-11T23:01:34.204Z,96645.34
2023-02-11T23:04:04.347Z,96655.13
2023-02-11T23:06:33.027Z,96649.66
2023-02-11T23:09:02.996Z,96642.59
2023-02-11T23:11:32.677Z,96655.53
2023-02-11T23:14:02.634Z,96650.44
2023-02-11T23:16:33.529Z,96640.66
2023-02-11T23:19:04.627Z,96643.00
2023-02-11T23:21:34.616Z,96643.38
2023-02-11T23:24:06.674Z,96643.03
2023-02-11T23:26:35.687Z,96637.50
2023-02-11T23:29:03.968Z,96635.56
2023-02-11T23:31:34.481Z,96641.84
2023-02-11T23:34:02.490Z,96627.28
2023-02-11T23:36:31.108Z,96634.75
2023-02-11T23:38:58.944Z,96634.78
2023-02-11T23:41:27.513Z,96634.00
2023-02-11T23:43:57.535Z,96627.31
2023-02-11T23:46:27.151Z,96617.13
2023-02-11T23:48:56.307Z,96632.44
2023-02-11T23:51:24.783Z,96619.47
2023-02-11T23:53:55.022Z,96623.00
2023-02-11T23:56:26.208Z,96619.47
2023-02-11T23:58:55.903Z,96620.66
